sensor_id;sensor_type;location;lat;lon;timestamp;P1;durP1;ratioP1;P2;durP2;ratioP2
82806;SDS011;72563;44.816;20.484;2024-02-26T00:01:40;14.73;;;5.75;;
82806;SDS011;72563;44.816;20.484;2024-02-26T00:04:05;11.18;;;5.70;;
82806;SDS011;72563;44.816;20.484;2024-02-26T00:06:31;11.60;;;5.15;;
82806;SDS011;72563;44.816;20.484;2024-02-26T00:08:56;12.15;;;5.38;;
82806;SDS011;72563;44.816;20.484;2024-02-26T00:11:22;11.85;;;5.28;;
82806;SDS011;72563;44.816;20.484;2024-02-26T00:13:48;11.43;;;5.80;;
82806;SDS011;72563;44.816;20.484;2024-02-26T00:16:13;10.32;;;5.03;;
82806;SDS011;72563;44.816;20.484;2024-02-26T00:18:39;12.68;;;5.25;;
82806;SDS011;72563;44.816;20.484;2024-02-26T00:21:04;12.55;;;5.68;;
82806;SDS011;72563;44.816;20.484;2024-02-26T00:23:30;13.38;;;6.00;;
82806;SDS011;72563;44.816;20.484;2024-02-26T00:25:55;13.07;;;5.53;;
82806;SDS011;72563;44.816;20.484;2024-02-26T00:28:21;11.15;;;6.40;;
82806;SDS011;72563;44.816;20.484;2024-02-26T00:30:47;12.63;;;5.55;;
82806;SDS011;72563;44.816;20.484;2024-02-26T00:33:13;12.57;;;5.63;;
82806;SDS011;72563;44.816;20.484;2024-02-26T00:35:42;10.95;;;5.97;;
82806;SDS011;72563;44.816;20.484;2024-02-26T00:38:07;12.18;;;5.25;;
82806;SDS011;72563;44.816;20.484;2024-02-26T00:40:33;12.23;;;5.97;;
82806;SDS011;72563;44.816;20.484;2024-02-26T00:42:59;10.70;;;5.32;;
82806;SDS011;72563;44.816;20.484;2024-02-26T00:45:25;10.48;;;5.00;;
82806;SDS011;72563;44.816;20.484;2024-02-26T00:47:50;11.50;;;5.03;;
82806;SDS011;72563;44.816;20.484;2024-02-26T00:50:16;10.40;;;4.97;;
82806;SDS011;72563;44.816;20.484;2024-02-26T00:52:41;12.68;;;5.07;;
82806;SDS011;72563;44.816;20.484;2024-02-26T00:55:07;11.52;;;5.18;;
82806;SDS011;72563;44.816;20.484;2024-02-26T00:57:33;11.23;;;5.22;;
82806;SDS011;72563;44.816;20.484;2024-02-26T00:59:59;11.80;;;4.68;;
82806;SDS011;72563;44.816;20.484;2024-02-26T01:02:25;10.20;;;4.88;;
82806;SDS011;72563;44.816;20.484;2024-02-26T01:04:51;11.80;;;5.75;;
82806;SDS011;72563;44.816;20.484;2024-02-26T01:07:17;11.93;;;5.40;;
82806;SDS011;72563;44.816;20.484;2024-02-26T01:09:42;13.00;;;5.20;;
82806;SDS011;72563;44.816;20.484;2024-02-26T01:12:08;10.10;;;5.13;;
82806;SDS011;72563;44.816;20.484;2024-02-26T01:14:34;13.55;;;5.60;;
82806;SDS011;72563;44.816;20.484;2024-02-26T01:16:59;10.48;;;4.88;;
82806;SDS011;72563;44.816;20.484;2024-02-26T01:19:25;12.60;;;4.70;;
82806;SDS011;72563;44.816;20.484;2024-02-26T01:21:50;13.38;;;5.68;;
82806;SDS011;72563;44.816;20.484;2024-02-26T01:24:16;10.35;;;5.22;;
82806;SDS011;72563;44.816;20.484;2024-02-26T01:26:42;9.90;;;5.20;;
82806;SDS011;72563;44.816;20.484;2024-02-26T01:29:08;12.52;;;5.25;;
82806;SDS011;72563;44.816;20.484;2024-02-26T01:31:33;11.27;;;4.90;;
82806;SDS011;72563;44.816;20.484;2024-02-26T01:34:00;11.73;;;6.20;;
82806;SDS011;72563;44.816;20.484;2024-02-26T01:36:26;14.98;;;6.43;;
82806;SDS011;72563;44.816;20.484;2024-02-26T01:38:51;15.10;;;9.32;;
82806;SDS011;72563;44.816;20.484;2024-02-26T01:41:18;19.05;;;10.10;;
82806;SDS011;72563;44.816;20.484;2024-02-26T01:43:44;18.63;;;10.10;;
82806;SDS011;72563;44.816;20.484;2024-02-26T01:46:11;18.33;;;10.55;;
82806;SDS011;72563;44.816;20.484;2024-02-26T01:48:42;17.95;;;10.85;;
82806;SDS011;72563;44.816;20.484;2024-02-26T01:51:11;20.65;;;11.52;;
82806;SDS011;72563;44.816;20.484;2024-02-26T01:53:39;18.38;;;10.90;;
82806;SDS011;72563;44.816;20.484;2024-02-26T01:56:05;18.42;;;10.32;;
82806;SDS011;72563;44.816;20.484;2024-02-26T01:58:32;17.85;;;10.73;;
82806;SDS011;72563;44.816;20.484;2024-02-26T02:00:59;18.90;;;11.00;;
82806;SDS011;72563;44.816;20.484;2024-02-26T02:03:26;20.88;;;11.48;;
82806;SDS011;72563;44.816;20.484;2024-02-26T02:05:51;17.13;;;11.30;;
82806;SDS011;72563;44.816;20.484;2024-02-26T02:08:17;19.13;;;10.65;;
82806;SDS011;72563;44.816;20.484;2024-02-26T02:10:43;17.50;;;10.50;;
82806;SDS011;72563;44.816;20.484;2024-02-26T02:13:12;19.95;;;10.88;;
82806;SDS011;72563;44.816;20.484;2024-02-26T02:15:39;20.48;;;10.68;;
82806;SDS011;72563;44.816;20.484;2024-02-26T02:18:04;20.52;;;10.60;;
82806;SDS011;72563;44.816;20.484;2024-02-26T02:20:34;20.38;;;11.25;;
82806;SDS011;72563;44.816;20.484;2024-02-26T02:23:01;22.02;;;11.13;;
82806;SDS011;72563;44.816;20.484;2024-02-26T02:25:27;17.52;;;10.57;;
82806;SDS011;72563;44.816;20.484;2024-02-26T02:27:53;19.70;;;11.15;;
82806;SDS011;72563;44.816;20.484;2024-02-26T02:30:27;19.15;;;11.48;;
82806;SDS011;72563;44.816;20.484;2024-02-26T02:32:54;20.88;;;11.48;;
82806;SDS011;72563;44.816;20.484;2024-02-26T02:37:48;18.23;;;10.27;;
82806;SDS011;72563;44.816;20.484;2024-02-26T02:40:14;17.70;;;10.75;;
82806;SDS011;72563;44.816;20.484;2024-02-26T02:42:40;21.00;;;11.75;;
82806;SDS011;72563;44.816;20.484;2024-02-26T02:45:05;21.13;;;12.98;;
82806;SDS011;72563;44.816;20.484;2024-02-26T02:47:31;16.75;;;10.60;;
82806;SDS011;72563;44.816;20.484;2024-02-26T02:49:57;19.42;;;11.55;;
82806;SDS011;72563;44.816;20.484;2024-02-26T02:52:22;18.95;;;10.63;;
82806;SDS011;72563;44.816;20.484;2024-02-26T02:54:48;19.15;;;10.05;;
82806;SDS011;72563;44.816;20.484;2024-02-26T02:57:13;13.57;;;6.85;;
82806;SDS011;72563;44.816;20.484;2024-02-26T02:59:39;15.55;;;8.93;;
82806;SDS011;72563;44.816;20.484;2024-02-26T03:02:04;14.95;;;7.72;;
82806;SDS011;72563;44.816;20.484;2024-02-26T03:04:30;10.20;;;5.45;;
82806;SDS011;72563;44.816;20.484;2024-02-26T03:06:55;10.80;;;5.15;;
82806;SDS011;72563;44.816;20.484;2024-02-26T03:09:21;12.18;;;5.70;;
82806;SDS011;72563;44.816;20.484;2024-02-26T03:11:46;9.50;;;4.55;;
82806;SDS011;72563;44.816;20.484;2024-02-26T03:14:12;12.05;;;4.82;;
82806;SDS011;72563;44.816;20.484;2024-02-26T03:16:37;10.35;;;4.93;;
82806;SDS011;72563;44.816;20.484;2024-02-26T03:19:03;9.40;;;4.50;;
82806;SDS011;72563;44.816;20.484;2024-02-26T03:21:28;10.48;;;4.25;;
82806;SDS011;72563;44.816;20.484;2024-02-26T03:23:54;8.23;;;4.25;;
82806;SDS011;72563;44.816;20.484;2024-02-26T03:26:20;8.20;;;3.70;;
82806;SDS011;72563;44.816;20.484;2024-02-26T03:28:46;9.38;;;4.15;;
82806;SDS011;72563;44.816;20.484;2024-02-26T03:31:12;9.20;;;3.92;;
82806;SDS011;72563;44.816;20.484;2024-02-26T03:33:38;7.75;;;3.85;;
82806;SDS011;72563;44.816;20.484;2024-02-26T03:36:04;11.93;;;3.85;;
82806;SDS011;72563;44.816;20.484;2024-02-26T03:38:30;8.55;;;4.18;;
82806;SDS011;72563;44.816;20.484;2024-02-26T03:40:56;11.43;;;5.30;;
82806;SDS011;72563;44.816;20.484;2024-02-26T03:43:21;8.20;;;3.38;;
82806;SDS011;72563;44.816;20.484;2024-02-26T03:45:47;12.02;;;3.88;;
82806;SDS011;72563;44.816;20.484;2024-02-26T03:48:12;10.23;;;3.80;;
82806;SDS011;72563;44.816;20.484;2024-02-26T03:50:38;10.13;;;3.85;;
82806;SDS011;72563;44.816;20.484;2024-02-26T03:53:03;8.02;;;4.18;;
82806;SDS011;72563;44.816;20.484;2024-02-26T03:55:29;8.15;;;3.67;;
82806;SDS011;72563;44.816;20.484;2024-02-26T03:57:55;9.45;;;3.88;;
82806;SDS011;72563;44.816;20.484;2024-02-26T04:00:20;9.50;;;3.83;;
82806;SDS011;72563;44.816;20.484;2024-02-26T04:02:46;8.40;;;3.72;;
82806;SDS011;72563;44.816;20.484;2024-02-26T04:05:12;8.77;;;3.95;;
82806;SDS011;72563;44.816;20.484;2024-02-26T04:07:39;11.00;;;3.85;;
82806;SDS011;72563;44.816;20.484;2024-02-26T04:10:10;8.13;;;3.60;;
82806;SDS011;72563;44.816;20.484;2024-02-26T04:12:39;8.85;;;3.80;;
82806;SDS011;72563;44.816;20.484;2024-02-26T04:15:07;8.23;;;3.65;;
82806;SDS011;72563;44.816;20.484;2024-02-26T04:17:33;7.90;;;3.45;;
82806;SDS011;72563;44.816;20.484;2024-02-26T04:19:59;12.32;;;3.97;;
82806;SDS011;72563;44.816;20.484;2024-02-26T04:22:24;7.45;;;3.45;;
82806;SDS011;72563;44.816;20.484;2024-02-26T04:24:50;7.88;;;3.22;;
82806;SDS011;72563;44.816;20.484;2024-02-26T04:27:15;7.22;;;3.55;;
82806;SDS011;72563;44.816;20.484;2024-02-26T04:29:41;10.57;;;3.58;;
82806;SDS011;72563;44.816;20.484;2024-02-26T04:32:07;8.30;;;3.97;;
82806;SDS011;72563;44.816;20.484;2024-02-26T04:34:32;7.80;;;3.60;;
82806;SDS011;72563;44.816;20.484;2024-02-26T04:36:58;8.15;;;3.78;;
82806;SDS011;72563;44.816;20.484;2024-02-26T04:39:23;7.28;;;3.63;;
82806;SDS011;72563;44.816;20.484;2024-02-26T04:41:49;7.65;;;3.50;;
82806;SDS011;72563;44.816;20.484;2024-02-26T04:44:14;10.35;;;4.35;;
82806;SDS011;72563;44.816;20.484;2024-02-26T04:46:40;11.55;;;4.53;;
82806;SDS011;72563;44.816;20.484;2024-02-26T04:49:05;9.02;;;4.35;;
82806;SDS011;72563;44.816;20.484;2024-02-26T04:51:31;8.90;;;4.10;;
82806;SDS011;72563;44.816;20.484;2024-02-26T04:53:56;9.65;;;4.20;;
82806;SDS011;72563;44.816;20.484;2024-02-26T04:56:22;7.80;;;3.35;;
82806;SDS011;72563;44.816;20.484;2024-02-26T04:58:47;7.60;;;3.60;;
82806;SDS011;72563;44.816;20.484;2024-02-26T05:01:13;9.70;;;3.85;;
82806;SDS011;72563;44.816;20.484;2024-02-26T05:03:41;8.52;;;3.80;;
82806;SDS011;72563;44.816;20.484;2024-02-26T05:06:06;10.38;;;4.45;;
82806;SDS011;72563;44.816;20.484;2024-02-26T05:08:32;11.77;;;4.20;;
82806;SDS011;72563;44.816;20.484;2024-02-26T05:10:58;9.23;;;3.70;;
82806;SDS011;72563;44.816;20.484;2024-02-26T05:13:25;8.85;;;3.70;;
82806;SDS011;72563;44.816;20.484;2024-02-26T05:15:51;9.10;;;3.90;;
82806;SDS011;72563;44.816;20.484;2024-02-26T05:18:17;10.48;;;3.67;;
82806;SDS011;72563;44.816;20.484;2024-02-26T05:20:43;10.30;;;3.72;;
82806;SDS011;72563;44.816;20.484;2024-02-26T05:23:09;9.13;;;4.22;;
82806;SDS011;72563;44.816;20.484;2024-02-26T05:25:34;8.82;;;4.28;;
82806;SDS011;72563;44.816;20.484;2024-02-26T05:28:00;11.48;;;3.83;;
82806;SDS011;72563;44.816;20.484;2024-02-26T05:30:25;9.48;;;3.88;;
82806;SDS011;72563;44.816;20.484;2024-02-26T05:32:54;9.82;;;4.40;;
82806;SDS011;72563;44.816;20.484;2024-02-26T05:35:19;8.55;;;4.15;;
82806;SDS011;72563;44.816;20.484;2024-02-26T05:37:45;10.35;;;4.35;;
82806;SDS011;72563;44.816;20.484;2024-02-26T05:40:11;9.60;;;4.43;;
82806;SDS011;72563;44.816;20.484;2024-02-26T05:42:37;7.90;;;3.85;;
82806;SDS011;72563;44.816;20.484;2024-02-26T05:45:02;11.40;;;4.88;;
82806;SDS011;72563;44.816;20.484;2024-02-26T05:47:34;10.00;;;4.40;;
82806;SDS011;72563;44.816;20.484;2024-02-26T05:50:00;12.27;;;4.70;;
82806;SDS011;72563;44.816;20.484;2024-02-26T05:52:27;9.82;;;4.20;;
82806;SDS011;72563;44.816;20.484;2024-02-26T05:54:56;9.73;;;4.47;;
82806;SDS011;72563;44.816;20.484;2024-02-26T05:57:22;9.25;;;4.82;;
82806;SDS011;72563;44.816;20.484;2024-02-26T05:59:47;9.73;;;5.13;;
82806;SDS011;72563;44.816;20.484;2024-02-26T06:02:13;13.00;;;5.25;;
82806;SDS011;72563;44.816;20.484;2024-02-26T06:04:38;10.30;;;4.93;;
82806;SDS011;72563;44.816;20.484;2024-02-26T06:07:04;10.02;;;5.20;;
82806;SDS011;72563;44.816;20.484;2024-02-26T06:09:30;10.52;;;4.53;;
82806;SDS011;72563;44.816;20.484;2024-02-26T06:11:55;8.93;;;4.00;;
82806;SDS011;72563;44.816;20.484;2024-02-26T06:14:21;11.25;;;5.07;;
82806;SDS011;72563;44.816;20.484;2024-02-26T06:16:48;9.18;;;4.57;;
82806;SDS011;72563;44.816;20.484;2024-02-26T06:19:14;11.60;;;4.95;;
82806;SDS011;72563;44.816;20.484;2024-02-26T06:21:40;9.45;;;5.05;;
82806;SDS011;72563;44.816;20.484;2024-02-26T06:24:06;12.90;;;5.20;;
82806;SDS011;72563;44.816;20.484;2024-02-26T06:26:31;12.18;;;5.43;;
82806;SDS011;72563;44.816;20.484;2024-02-26T06:28:58;11.18;;;5.18;;
82806;SDS011;72563;44.816;20.484;2024-02-26T06:31:24;11.27;;;5.35;;
82806;SDS011;72563;44.816;20.484;2024-02-26T06:33:52;11.93;;;5.47;;
82806;SDS011;72563;44.816;20.484;2024-02-26T06:36:19;10.75;;;5.70;;
82806;SDS011;72563;44.816;20.484;2024-02-26T06:38:44;9.55;;;4.93;;
82806;SDS011;72563;44.816;20.484;2024-02-26T06:41:10;12.38;;;6.05;;
82806;SDS011;72563;44.816;20.484;2024-02-26T06:43:36;11.32;;;5.70;;
82806;SDS011;72563;44.816;20.484;2024-02-26T06:46:02;10.70;;;5.43;;
82806;SDS011;72563;44.816;20.484;2024-02-26T06:48:28;9.50;;;5.35;;
82806;SDS011;72563;44.816;20.484;2024-02-26T06:50:53;11.43;;;5.40;;
82806;SDS011;72563;44.816;20.484;2024-02-26T06:53:19;13.38;;;6.20;;
82806;SDS011;72563;44.816;20.484;2024-02-26T06:55:44;14.70;;;6.85;;
82806;SDS011;72563;44.816;20.484;2024-02-26T06:58:10;13.68;;;6.38;;
82806;SDS011;72563;44.816;20.484;2024-02-26T07:00:36;13.70;;;6.25;;
82806;SDS011;72563;44.816;20.484;2024-02-26T07:03:01;12.88;;;6.85;;
82806;SDS011;72563;44.816;20.484;2024-02-26T07:05:27;13.15;;;5.93;;
82806;SDS011;72563;44.816;20.484;2024-02-26T07:07:53;14.50;;;7.00;;
82806;SDS011;72563;44.816;20.484;2024-02-26T07:10:18;15.07;;;7.32;;
82806;SDS011;72563;44.816;20.484;2024-02-26T07:12:44;13.90;;;6.78;;
82806;SDS011;72563;44.816;20.484;2024-02-26T07:15:10;13.57;;;6.75;;
82806;SDS011;72563;44.816;20.484;2024-02-26T07:17:35;14.20;;;6.50;;
82806;SDS011;72563;44.816;20.484;2024-02-26T07:20:02;13.23;;;6.50;;
82806;SDS011;72563;44.816;20.484;2024-02-26T07:22:29;13.10;;;6.18;;
82806;SDS011;72563;44.816;20.484;2024-02-26T07:24:55;13.52;;;6.75;;
82806;SDS011;72563;44.816;20.484;2024-02-26T07:27:21;11.50;;;6.15;;
82806;SDS011;72563;44.816;20.484;2024-02-26T07:29:47;10.43;;;5.78;;
82806;SDS011;72563;44.816;20.484;2024-02-26T07:32:13;10.52;;;5.95;;
82806;SDS011;72563;44.816;20.484;2024-02-26T07:34:39;11.65;;;5.97;;
82806;SDS011;72563;44.816;20.484;2024-02-26T07:37:07;14.93;;;6.07;;
82806;SDS011;72563;44.816;20.484;2024-02-26T07:39:33;14.50;;;7.03;;
82806;SDS011;72563;44.816;20.484;2024-02-26T07:41:58;11.75;;;5.95;;
82806;SDS011;72563;44.816;20.484;2024-02-26T07:44:24;12.70;;;6.00;;
82806;SDS011;72563;44.816;20.484;2024-02-26T07:46:49;11.43;;;6.82;;
82806;SDS011;72563;44.816;20.484;2024-02-26T07:49:15;12.73;;;6.10;;
82806;SDS011;72563;44.816;20.484;2024-02-26T07:51:40;11.90;;;6.38;;
82806;SDS011;72563;44.816;20.484;2024-02-26T07:54:07;11.52;;;5.15;;
82806;SDS011;72563;44.816;20.484;2024-02-26T07:56:33;11.45;;;6.03;;
82806;SDS011;72563;44.816;20.484;2024-02-26T07:58:58;12.55;;;5.70;;
82806;SDS011;72563;44.816;20.484;2024-02-26T08:01:24;11.95;;;6.20;;
82806;SDS011;72563;44.816;20.484;2024-02-26T08:03:52;12.93;;;6.03;;
82806;SDS011;72563;44.816;20.484;2024-02-26T08:06:22;10.57;;;5.57;;
82806;SDS011;72563;44.816;20.484;2024-02-26T08:08:48;10.88;;;5.10;;
82806;SDS011;72563;44.816;20.484;2024-02-26T08:11:14;11.55;;;5.30;;
82806;SDS011;72563;44.816;20.484;2024-02-26T08:13:41;13.00;;;5.65;;
82806;SDS011;72563;44.816;20.484;2024-02-26T08:16:07;10.23;;;5.47;;
82806;SDS011;72563;44.816;20.484;2024-02-26T08:18:32;12.40;;;5.63;;
82806;SDS011;72563;44.816;20.484;2024-02-26T08:20:58;14.07;;;5.25;;
82806;SDS011;72563;44.816;20.484;2024-02-26T08:23:24;9.82;;;5.28;;
82806;SDS011;72563;44.816;20.484;2024-02-26T08:25:50;10.02;;;5.22;;
82806;SDS011;72563;44.816;20.484;2024-02-26T08:28:15;10.35;;;5.13;;
82806;SDS011;72563;44.816;20.484;2024-02-26T08:30:43;12.30;;;4.70;;
82806;SDS011;72563;44.816;20.484;2024-02-26T08:33:09;10.48;;;4.88;;
82806;SDS011;72563;44.816;20.484;2024-02-26T08:35:35;10.13;;;4.55;;
82806;SDS011;72563;44.816;20.484;2024-02-26T08:38:01;10.93;;;4.88;;
82806;SDS011;72563;44.816;20.484;2024-02-26T08:40:28;11.55;;;4.55;;
82806;SDS011;72563;44.816;20.484;2024-02-26T08:42:54;12.20;;;4.60;;
82806;SDS011;72563;44.816;20.484;2024-02-26T08:45:20;11.18;;;5.28;;
82806;SDS011;72563;44.816;20.484;2024-02-26T08:47:46;11.55;;;5.00;;
82806;SDS011;72563;44.816;20.484;2024-02-26T08:50:12;9.40;;;4.70;;
82806;SDS011;72563;44.816;20.484;2024-02-26T08:52:39;10.35;;;4.47;;
82806;SDS011;72563;44.816;20.484;2024-02-26T08:55:05;8.93;;;4.40;;
82806;SDS011;72563;44.816;20.484;2024-02-26T08:57:31;9.23;;;4.22;;
82806;SDS011;72563;44.816;20.484;2024-02-26T08:59:59;10.25;;;4.90;;
82806;SDS011;72563;44.816;20.484;2024-02-26T09:02:25;10.57;;;5.07;;
82806;SDS011;72563;44.816;20.484;2024-02-26T09:04:51;9.05;;;4.00;;
82806;SDS011;72563;44.816;20.484;2024-02-26T09:07:20;10.63;;;4.03;;
82806;SDS011;72563;44.816;20.484;2024-02-26T09:09:45;9.68;;;3.90;;
82806;SDS011;72563;44.816;20.484;2024-02-26T09:12:11;7.97;;;3.85;;
82806;SDS011;72563;44.816;20.484;2024-02-26T09:14:37;8.32;;;3.78;;
82806;SDS011;72563;44.816;20.484;2024-02-26T09:17:02;8.10;;;4.07;;
82806;SDS011;72563;44.816;20.484;2024-02-26T09:19:28;9.00;;;4.15;;
82806;SDS011;72563;44.816;20.484;2024-02-26T09:21:54;8.35;;;4.18;;
82806;SDS011;72563;44.816;20.484;2024-02-26T09:24:22;11.20;;;4.85;;
82806;SDS011;72563;44.816;20.484;2024-02-26T09:26:48;8.23;;;3.78;;
82806;SDS011;72563;44.816;20.484;2024-02-26T09:29:14;8.73;;;3.67;;
82806;SDS011;72563;44.816;20.484;2024-02-26T09:31:40;7.47;;;4.00;;
82806;SDS011;72563;44.816;20.484;2024-02-26T09:34:06;8.88;;;3.70;;
82806;SDS011;72563;44.816;20.484;2024-02-26T09:36:33;8.30;;;3.78;;
82806;SDS011;72563;44.816;20.484;2024-02-26T09:38:59;9.70;;;3.65;;
82806;SDS011;72563;44.816;20.484;2024-02-26T09:41:25;8.77;;;3.67;;
82806;SDS011;72563;44.816;20.484;2024-02-26T09:43:54;7.82;;;3.92;;
82806;SDS011;72563;44.816;20.484;2024-02-26T09:46:23;7.82;;;3.60;;
82806;SDS011;72563;44.816;20.484;2024-02-26T09:48:50;9.32;;;4.20;;
82806;SDS011;72563;44.816;20.484;2024-02-26T09:51:16;8.65;;;3.88;;
82806;SDS011;72563;44.816;20.484;2024-02-26T09:53:43;11.82;;;4.25;;
82806;SDS011;72563;44.816;20.484;2024-02-26T09:56:11;8.77;;;4.25;;
82806;SDS011;72563;44.816;20.484;2024-02-26T09:58:38;7.97;;;3.95;;
82806;SDS011;72563;44.816;20.484;2024-02-26T10:01:05;8.57;;;3.72;;
82806;SDS011;72563;44.816;20.484;2024-02-26T10:03:38;8.90;;;4.13;;
82806;SDS011;72563;44.816;20.484;2024-02-26T10:06:09;8.27;;;4.15;;
82806;SDS011;72563;44.816;20.484;2024-02-26T10:08:35;8.82;;;4.10;;
82806;SDS011;72563;44.816;20.484;2024-02-26T10:11:05;10.82;;;4.47;;
82806;SDS011;72563;44.816;20.484;2024-02-26T10:13:32;9.82;;;3.90;;
82806;SDS011;72563;44.816;20.484;2024-02-26T10:15:57;9.65;;;4.47;;
82806;SDS011;72563;44.816;20.484;2024-02-26T10:18:25;9.75;;;4.30;;
82806;SDS011;72563;44.816;20.484;2024-02-26T10:21:00;9.27;;;4.10;;
82806;SDS011;72563;44.816;20.484;2024-02-26T10:23:29;9.23;;;4.13;;
82806;SDS011;72563;44.816;20.484;2024-02-26T10:25:55;8.00;;;3.78;;
82806;SDS011;72563;44.816;20.484;2024-02-26T10:28:22;8.32;;;4.13;;
82806;SDS011;72563;44.816;20.484;2024-02-26T10:30:48;7.80;;;3.83;;
82806;SDS011;72563;44.816;20.484;2024-02-26T10:33:13;7.57;;;3.83;;
82806;SDS011;72563;44.816;20.484;2024-02-26T10:35:40;9.77;;;4.45;;
82806;SDS011;72563;44.816;20.484;2024-02-26T10:38:11;8.00;;;4.18;;
82806;SDS011;72563;44.816;20.484;2024-02-26T10:40:37;7.55;;;3.67;;
82806;SDS011;72563;44.816;20.484;2024-02-26T10:43:02;7.82;;;4.15;;
82806;SDS011;72563;44.816;20.484;2024-02-26T10:45:28;11.07;;;4.10;;
82806;SDS011;72563;44.816;20.484;2024-02-26T10:47:54;10.30;;;4.85;;
82806;SDS011;72563;44.816;20.484;2024-02-26T10:50:19;10.75;;;5.28;;
82806;SDS011;72563;44.816;20.484;2024-02-26T10:52:45;8.82;;;4.18;;
82806;SDS011;72563;44.816;20.484;2024-02-26T10:55:15;9.15;;;4.40;;
82806;SDS011;72563;44.816;20.484;2024-02-26T10:57:45;9.07;;;4.38;;
82806;SDS011;72563;44.816;20.484;2024-02-26T11:00:13;8.32;;;3.90;;
82806;SDS011;72563;44.816;20.484;2024-02-26T11:02:40;7.95;;;4.20;;
82806;SDS011;72563;44.816;20.484;2024-02-26T11:05:07;9.20;;;4.18;;
82806;SDS011;72563;44.816;20.484;2024-02-26T11:07:34;7.22;;;4.15;;
82806;SDS011;72563;44.816;20.484;2024-02-26T11:10:02;8.20;;;4.35;;
82806;SDS011;72563;44.816;20.484;2024-02-26T11:12:29;10.60;;;4.80;;
82806;SDS011;72563;44.816;20.484;2024-02-26T11:14:56;8.57;;;4.30;;
82806;SDS011;72563;44.816;20.484;2024-02-26T11:17:27;7.35;;;3.90;;
82806;SDS011;72563;44.816;20.484;2024-02-26T11:19:57;7.78;;;4.75;;
82806;SDS011;72563;44.816;20.484;2024-02-26T11:22:25;8.98;;;3.97;;
82806;SDS011;72563;44.816;20.484;2024-02-26T11:24:54;8.50;;;4.53;;
82806;SDS011;72563;44.816;20.484;2024-02-26T11:27:30;9.23;;;4.00;;
82806;SDS011;72563;44.816;20.484;2024-02-26T11:29:59;8.85;;;3.80;;
82806;SDS011;72563;44.816;20.484;2024-02-26T11:32:27;6.80;;;3.60;;
82806;SDS011;72563;44.816;20.484;2024-02-26T11:34:55;7.38;;;3.88;;
82806;SDS011;72563;44.816;20.484;2024-02-26T11:37:23;8.82;;;3.78;;
82806;SDS011;72563;44.816;20.484;2024-02-26T11:39:48;8.98;;;3.95;;
82806;SDS011;72563;44.816;20.484;2024-02-26T11:42:17;7.03;;;3.40;;
82806;SDS011;72563;44.816;20.484;2024-02-26T11:44:49;8.48;;;3.58;;
82806;SDS011;72563;44.816;20.484;2024-02-26T11:47:18;6.20;;;3.22;;
82806;SDS011;72563;44.816;20.484;2024-02-26T11:49:46;9.52;;;4.13;;
82806;SDS011;72563;44.816;20.484;2024-02-26T11:52:12;7.82;;;3.50;;
82806;SDS011;72563;44.816;20.484;2024-02-26T11:54:40;8.32;;;4.00;;
82806;SDS011;72563;44.816;20.484;2024-02-26T11:57:22;8.02;;;3.85;;
82806;SDS011;72563;44.816;20.484;2024-02-26T11:59:48;8.25;;;3.70;;
82806;SDS011;72563;44.816;20.484;2024-02-26T12:05:14;7.18;;;3.20;;
82806;SDS011;72563;44.816;20.484;2024-02-26T12:07:49;7.72;;;3.30;;
82806;SDS011;72563;44.816;20.484;2024-02-26T12:13:07;8.57;;;3.50;;
82806;SDS011;72563;44.816;20.484;2024-02-26T12:15:40;8.52;;;4.00;;
82806;SDS011;72563;44.816;20.484;2024-02-26T12:18:08;6.93;;;3.22;;
82806;SDS011;72563;44.816;20.484;2024-02-26T12:20:38;6.50;;;3.15;;
82806;SDS011;72563;44.816;20.484;2024-02-26T12:23:03;8.05;;;3.40;;
82806;SDS011;72563;44.816;20.484;2024-02-26T12:25:30;8.43;;;3.10;;
82806;SDS011;72563;44.816;20.484;2024-02-26T12:27:56;7.68;;;3.53;;
82806;SDS011;72563;44.816;20.484;2024-02-26T12:30:23;7.97;;;3.22;;
82806;SDS011;72563;44.816;20.484;2024-02-26T12:32:50;9.25;;;3.55;;
82806;SDS011;72563;44.816;20.484;2024-02-26T12:35:17;7.97;;;3.30;;
82806;SDS011;72563;44.816;20.484;2024-02-26T12:37:43;6.70;;;3.10;;
82806;SDS011;72563;44.816;20.484;2024-02-26T12:40:09;7.32;;;3.40;;
82806;SDS011;72563;44.816;20.484;2024-02-26T12:42:38;8.70;;;3.63;;
82806;SDS011;72563;44.816;20.484;2024-02-26T12:45:05;7.03;;;3.20;;
82806;SDS011;72563;44.816;20.484;2024-02-26T12:47:41;7.30;;;3.33;;
82806;SDS011;72563;44.816;20.484;2024-02-26T12:50:08;7.38;;;3.20;;
82806;SDS011;72563;44.816;20.484;2024-02-26T12:52:35;8.23;;;3.53;;
82806;SDS011;72563;44.816;20.484;2024-02-26T12:55:08;8.02;;;3.03;;
82806;SDS011;72563;44.816;20.484;2024-02-26T12:57:37;7.25;;;3.30;;
82806;SDS011;72563;44.816;20.484;2024-02-26T13:00:06;8.02;;;3.47;;
82806;SDS011;72563;44.816;20.484;2024-02-26T13:02:35;6.43;;;3.03;;
82806;SDS011;72563;44.816;20.484;2024-02-26T13:05:03;9.52;;;3.30;;
82806;SDS011;72563;44.816;20.484;2024-02-26T13:07:31;7.10;;;2.88;;
82806;SDS011;72563;44.816;20.484;2024-02-26T13:09:56;7.22;;;2.97;;
82806;SDS011;72563;44.816;20.484;2024-02-26T13:12:22;6.53;;;3.08;;
82806;SDS011;72563;44.816;20.484;2024-02-26T13:14:58;6.63;;;2.90;;
82806;SDS011;72563;44.816;20.484;2024-02-26T13:17:24;7.28;;;2.83;;
82806;SDS011;72563;44.816;20.484;2024-02-26T13:19:53;6.82;;;3.28;;
82806;SDS011;72563;44.816;20.484;2024-02-26T13:22:22;6.50;;;2.67;;
82806;SDS011;72563;44.816;20.484;2024-02-26T13:24:55;6.88;;;2.50;;
82806;SDS011;72563;44.816;20.484;2024-02-26T13:27:25;6.60;;;2.70;;
82806;SDS011;72563;44.816;20.484;2024-02-26T13:32:34;7.82;;;2.65;;
82806;SDS011;72563;44.816;20.484;2024-02-26T13:35:11;5.63;;;2.30;;
82806;SDS011;72563;44.816;20.484;2024-02-26T13:37:38;6.38;;;2.75;;
82806;SDS011;72563;44.816;20.484;2024-02-26T13:40:05;7.63;;;2.85;;
82806;SDS011;72563;44.816;20.484;2024-02-26T13:42:37;7.47;;;2.40;;
82806;SDS011;72563;44.816;20.484;2024-02-26T13:45:03;10.75;;;2.90;;
82806;SDS011;72563;44.816;20.484;2024-02-26T13:47:33;6.60;;;2.53;;
82806;SDS011;72563;44.816;20.484;2024-02-26T13:49:59;7.55;;;2.50;;
82806;SDS011;72563;44.816;20.484;2024-02-26T13:52:26;7.30;;;2.80;;
82806;SDS011;72563;44.816;20.484;2024-02-26T13:57:19;6.28;;;2.50;;
82806;SDS011;72563;44.816;20.484;2024-02-26T13:59:44;7.18;;;2.58;;
82806;SDS011;72563;44.816;20.484;2024-02-26T14:02:10;6.47;;;2.65;;
82806;SDS011;72563;44.816;20.484;2024-02-26T14:04:36;11.10;;;3.05;;
82806;SDS011;72563;44.816;20.484;2024-02-26T14:07:02;9.57;;;3.60;;
82806;SDS011;72563;44.816;20.484;2024-02-26T14:09:29;7.90;;;3.00;;
82806;SDS011;72563;44.816;20.484;2024-02-26T14:11:57;6.97;;;3.22;;
82806;SDS011;72563;44.816;20.484;2024-02-26T14:14:29;7.70;;;3.15;;
82806;SDS011;72563;44.816;20.484;2024-02-26T14:16:58;7.82;;;2.88;;
82806;SDS011;72563;44.816;20.484;2024-02-26T14:19:24;7.47;;;3.15;;
82806;SDS011;72563;44.816;20.484;2024-02-26T14:21:51;8.15;;;3.00;;
82806;SDS011;72563;44.816;20.484;2024-02-26T14:24:18;8.07;;;2.88;;
82806;SDS011;72563;44.816;20.484;2024-02-26T14:26:44;7.85;;;2.83;;
82806;SDS011;72563;44.816;20.484;2024-02-26T14:29:11;7.47;;;3.15;;
82806;SDS011;72563;44.816;20.484;2024-02-26T14:31:37;9.30;;;3.25;;
82806;SDS011;72563;44.816;20.484;2024-02-26T14:34:03;6.70;;;2.92;;
82806;SDS011;72563;44.816;20.484;2024-02-26T14:36:31;8.70;;;3.10;;